Time;durP1;ratioP1;P1;durP2;ratioP2;P2;SDS_P1;SDS_P2;PMS_P1;PMS_P2;Temp;Humidity;BMP_temperature;BMP_pressure;BME280_temperature;BME280_humidity;BME280_pressure;Samples;Min_cycle;Max_cycle;Signal;HPM_P1;HPM_P2
2022/12/09 00:01:23;;;;;;;33.40;20.60;;;2.40;99.90;;;;;;5057394;28;20470;-64
2022/12/09 00:03:51;;;;;;;31.40;21.90;;;2.40;99.90;;;;;;5058171;28;20502;-64
2022/12/09 00:06:20;;;;;;;27.33;21.63;;;2.40;99.90;;;;;;5057672;28;20437;-64
2022/12/09 00:08:47;;;;;;;26.43;22.17;;;2.40;99.90;;;;;;5057343;28;20447;-64
2022/12/09 00:11:15;;;;;;;34.30;24.10;;;2.40;99.90;;;;;;5056532;28;20569;-64
2022/12/09 00:13:42;;;;;;;28.33;22.40;;;2.40;99.90;;;;;;5056219;28;20441;-64
2022/12/09 00:16:13;;;;;;;28.97;21.67;;;2.40;99.90;;;;;;5057294;28;20462;-64
2022/12/09 00:18:40;;;;;;;30.03;21.73;;;2.30;99.90;;;;;;5056630;28;20489;-64
2022/12/09 00:21:15;;;;;;;26.70;20.83;;;2.30;99.90;;;;;;5056807;28;20443;-64
2022/12/09 00:23:42;;;;;;;28.27;21.50;;;2.20;99.90;;;;;;5056151;28;20735;-64
2022/12/09 00:26:09;;;;;;;27.70;21.10;;;2.20;99.90;;;;;;5057216;28;20473;-64
2022/12/09 00:28:36;;;;;;;27.50;21.67;;;2.30;99.90;;;;;;5057325;28;20462;-64
2022/12/09 00:31:06;;;;;;;30.47;21.60;;;2.30;99.90;;;;;;5056682;28;20433;-64
2022/12/09 00:33:35;;;;;;;27.40;20.90;;;2.30;99.90;;;;;;5057587;28;20462;-64
2022/12/09 00:36:07;;;;;;;27.37;21.63;;;2.30;99.90;;;;;;5057492;28;20470;-64
2022/12/09 00:38:34;;;;;;;30.83;23.10;;;2.30;99.90;;;;;;5057041;28;20458;-64
2022/12/09 00:41:02;;;;;;;29.50;21.43;;;2.30;99.90;;;;;;5057218;28;20466;-64
2022/12/09 00:43:29;;;;;;;28.17;21.87;;;2.30;99.90;;;;;;5057232;28;20462;-64
2022/12/09 00:45:56;;;;;;;25.30;19.07;;;2.30;99.90;;;;;;5057397;28;20465;-64
2022/12/09 00:48:24;;;;;;;30.13;20.30;;;2.30;99.90;;;;;;5056784;28;20927;-64
2022/12/09 00:50:52;;;;;;;29.67;21.90;;;2.30;99.90;;;;;;5056487;28;20448;-64
2022/12/09 00:53:19;;;;;;;26.90;20.90;;;2.30;99.90;;;;;;5057136;28;20489;-64
2022/12/09 00:55:47;;;;;;;26.73;20.30;;;2.40;99.90;;;;;;5057021;28;20437;-64
2022/12/09 00:58:14;;;;;;;29.90;20.33;;;2.40;99.90;;;;;;5057073;28;20465;-64
2022/12/09 01:00:41;;;;;;;31.77;22.20;;;2.40;99.90;;;;;;5056819;28;20511;-64
2022/12/09 01:03:12;;;;;;;27.20;21.07;;;2.30;99.90;;;;;;5056855;28;20763;-64
2022/12/09 01:05:40;;;;;;;26.27;20.93;;;2.30;99.90;;;;;;5057445;28;20468;-64
2022/12/09 01:08:10;;;;;;;29.73;20.90;;;2.30;99.90;;;;;;5057370;28;20747;-64
2022/12/09 01:10:38;;;;;;;29.03;21.87;;;2.20;99.90;;;;;;5056866;28;20463;-64
2022/12/09 01:13:05;;;;;;;29.23;21.30;;;2.20;99.90;;;;;;5056687;28;20462;-64
2022/12/09 01:15:33;;;;;;;27.70;21.30;;;2.30;99.90;;;;;;5056748;28;20531;-64
2022/12/09 01:18:00;;;;;;;29.27;20.57;;;2.20;99.90;;;;;;5057056;28;20469;-64
2022/12/09 01:20:28;;;;;;;27.77;20.40;;;2.30;99.90;;;;;;5056937;28;20461;-64
2022/12/09 01:22:55;;;;;;;35.33;23.40;;;2.30;99.90;;;;;;5056911;28;20958;-64
2022/12/09 01:25:23;;;;;;;30.47;22.60;;;2.30;99.90;;;;;;5056658;28;20485;-64
2022/12/09 01:27:50;;;;;;;32.83;22.43;;;2.30;99.90;;;;;;5057133;28;20494;-64
2022/12/09 01:30:18;;;;;;;29.43;23.00;;;2.30;99.90;;;;;;5058221;28;20466;-64
2022/12/09 01:32:45;;;;;;;29.90;22.57;;;2.30;99.90;;;;;;5060440;28;20441;-64
2022/12/09 01:35:12;;;;;;;30.50;23.40;;;2.30;99.90;;;;;;5060299;28;20465;-64
2022/12/09 01:37:39;;;;;;;31.10;23.10;;;2.30;99.90;;;;;;5060008;28;20439;-64
2022/12/09 01:40:10;;;;;;;31.80;21.70;;;2.20;99.90;;;;;;5060672;28;20467;-64
2022/12/09 01:42:38;;;;;;;31.00;22.27;;;2.30;99.90;;;;;;5059912;28;20436;-64
2022/12/09 01:45:42;;;;;;;32.37;23.47;;;2.20;99.90;;;;;;5060218;28;20473;-64
2022/12/09 01:48:12;;;;;;;32.27;22.80;;;2.20;99.90;;;;;;5060300;28;20942;-64
2022/12/09 01:50:45;;;;;;;33.87;23.90;;;2.20;99.90;;;;;;5059893;28;20494;-64
2022/12/09 01:53:14;;;;;;;29.10;21.27;;;2.20;99.90;;;;;;5059836;28;20436;-64
2022/12/09 01:55:42;;;;;;;33.57;23.60;;;2.20;99.90;;;;;;5060094;28;20445;-64
2022/12/09 01:58:10;;;;;;;26.93;21.03;;;2.20;99.90;;;;;;5060433;28;20516;-64
2022/12/09 02:00:38;;;;;;;29.63;22.70;;;2.20;99.90;;;;;;5059968;28;20463;-64
2022/12/09 02:03:06;;;;;;;36.87;23.00;;;2.20;99.90;;;;;;5059720;28;20520;-63
2022/12/09 02:05:34;;;;;;;36.33;22.30;;;2.20;99.90;;;;;;5059891;28;20469;-64
2022/12/09 02:08:02;;;;;;;29.63;22.23;;;2.20;99.90;;;;;;5060128;28;20541;-64
2022/12/09 02:10:30;;;;;;;31.17;22.67;;;2.20;99.90;;;;;;5059393;28;20469;-64
2022/12/09 02:13:08;;;;;;;30.73;21.00;;;2.10;99.90;;;;;;5059439;28;20436;-64
2022/12/09 02:15:43;;;;;;;30.93;22.10;;;2.10;99.90;;;;;;5060036;28;20460;-64
2022/12/09 02:18:19;;;;;;;26.77;21.10;;;2.10;99.90;;;;;;5059696;28;20473;-64
2022/12/09 02:20:52;;;;;;;29.57;20.10;;;2.10;99.90;;;;;;5059692;28;20861;-64
2022/12/09 02:23:26;;;;;;;24.67;20.23;;;2.10;99.90;;;;;;5059245;28;20911;-64
2022/12/09 02:25:59;;;;;;;28.00;21.20;;;2.10;99.90;;;;;;5058550;28;20489;-64
2022/12/09 02:28:46;;;;;;;25.50;21.00;;;2.10;99.90;;;;;;5059675;28;20497;-64
2022/12/09 02:31:25;;;;;;;33.80;22.60;;;2.10;99.90;;;;;;5059702;28;20472;-64
2022/12/09 02:34:05;;;;;;;28.07;20.87;;;2.00;99.90;;;;;;5059575;28;20870;-64
2022/12/09 02:36:43;;;;;;;24.87;20.80;;;2.00;99.90;;;;;;5059183;28;20461;-64
2022/12/09 02:39:10;;;;;;;26.43;20.67;;;2.00;99.90;;;;;;5059148;28;20533;-64
2022/12/09 02:41:41;;;;;;;30.03;21.70;;;2.00;99.90;;;;;;5058895;28;20462;-64
2022/12/09 02:44:13;;;;;;;28.77;20.53;;;2.00;99.90;;;;;;5059558;28;20474;-64
2022/12/09 02:46:42;;;;;;;31.73;21.90;;;2.10;99.90;;;;;;5059435;28;20861;-64
2022/12/09 02:49:12;;;;;;;29.20;20.87;;;2.10;99.90;;;;;;5058971;28;20491;-64
2022/12/09 02:51:41;;;;;;;34.40;21.40;;;2.10;99.90;;;;;;5059183;28;20437;-64
2022/12/09 02:54:12;;;;;;;30.80;21.47;;;2.10;99.90;;;;;;5059068;28;20466;-64
2022/12/09 02:56:44;;;;;;;29.73;22.47;;;2.00;99.90;;;;;;5058978;28;20774;-64
2022/12/09 02:59:11;;;;;;;30.20;22.43;;;2.10;99.90;;;;;;5058909;28;20467;-64
2022/12/09 03:01:45;;;;;;;29.27;20.73;;;2.00;99.90;;;;;;5059238;28;20891;-64
2022/12/09 03:04:18;;;;;;;24.97;20.10;;;2.00;99.90;;;;;;5058849;28;20520;-64
2022/12/09 03:06:50;;;;;;;29.10;20.70;;;2.00;99.90;;;;;;5058645;28;20461;-64
2022/12/09 03:09:21;;;;;;;32.77;20.77;;;1.90;99.90;;;;;;5058163;28;20495;-64
2022/12/09 03:11:50;;;;;;;26.77;20.70;;;1.90;99.90;;;;;;5058760;28;20540;-64
2022/12/09 03:14:22;;;;;;;27.90;20.97;;;2.00;99.90;;;;;;5058896;28;20437;-63
2022/12/09 03:16:56;;;;;;;28.60;21.87;;;1.90;99.90;;;;;;5058897;28;20820;-64
2022/12/09 03:19:31;;;;;;;33.93;21.73;;;1.90;99.90;;;;;;5058540;28;20914;-64
2022/12/09 03:22:03;;;;;;;29.07;21.20;;;1.90;99.90;;;;;;5057575;28;20737;-64
2022/12/09 03:24:34;;;;;;;29.40;20.30;;;1.90;99.90;;;;;;5057785;28;20935;-64
2022/12/09 03:27:06;;;;;;;30.90;21.03;;;1.90;99.90;;;;;;5058195;28;20447;-64
2022/12/09 03:29:35;;;;;;;29.27;21.30;;;1.80;99.90;;;;;;5058748;28;20429;-64
2022/12/09 03:32:02;;;;;;;30.37;20.87;;;1.70;99.90;;;;;;5058640;28;20462;-64
2022/12/09 03:34:36;;;;;;;28.20;21.13;;;1.70;99.90;;;;;;5057419;28;20866;-64
2022/12/09 03:37:05;;;;;;;29.00;22.30;;;1.80;99.90;;;;;;5057815;28;20429;-64
2022/12/09 03:39:35;;;;;;;28.07;22.50;;;1.70;99.90;;;;;;5058193;28;20459;-64
2022/12/09 03:42:05;;;;;;;28.53;20.80;;;1.70;99.90;;;;;;5058632;28;20432;-64
2022/12/09 03:44:37;;;;;;;27.80;22.27;;;1.70;99.90;;;;;;5056957;28;20450;-64
2022/12/09 03:47:05;;;;;;;28.53;20.30;;;1.70;99.90;;;;;;5057264;28;20462;-64
2022/12/09 03:49:34;;;;;;;32.80;23.07;;;1.70;99.90;;;;;;5058339;28;20601;-64
2022/12/09 03:52:07;;;;;;;31.60;22.17;;;1.60;99.90;;;;;;5057994;28;20437;-64
2022/12/09 03:54:40;;;;;;;30.53;20.60;;;1.60;99.90;;;;;;5057257;28;20480;-63
2022/12/09 03:57:11;;;;;;;30.53;22.37;;;1.50;99.90;;;;;;5057876;28;20508;-64
2022/12/09 03:59:39;;;;;;;29.27;20.07;;;1.50;99.90;;;;;;5057909;28;20463;-64
2022/12/09 04:02:06;;;;;;;32.27;20.80;;;1.50;99.90;;;;;;5058373;28;20476;-63
2022/12/09 04:04:38;;;;;;;33.27;21.57;;;1.50;99.90;;;;;;5058069;28;20761;-63
2022/12/09 04:07:05;;;;;;;26.50;20.47;;;1.40;99.90;;;;;;5058553;28;20891;-63
2022/12/09 04:09:33;;;;;;;26.43;20.27;;;1.40;99.90;;;;;;5058305;28;20495;-63
2022/12/09 04:12:00;;;;;;;28.53;21.23;;;1.30;99.90;;;;;;5057522;28;20441;-63
2022/12/09 04:14:27;;;;;;;24.70;19.80;;;1.20;99.90;;;;;;5057551;28;20461;-63
2022/12/09 04:16:54;;;;;;;29.23;21.70;;;1.10;99.90;;;;;;5057311;28;20554;-64
2022/12/09 04:19:21;;;;;;;28.17;21.07;;;1.00;99.90;;;;;;5057790;28;20440;-64
2022/12/09 04:21:50;;;;;;;27.67;19.13;;;0.90;99.90;;;;;;5057539;28;20466;-64
2022/12/09 04:24:17;;;;;;;25.03;19.70;;;0.80;99.90;;;;;;5057730;28;20503;-64
2022/12/09 04:26:44;;;;;;;27.80;20.83;;;0.80;99.90;;;;;;5057344;28;20769;-64
2022/12/09 04:29:12;;;;;;;32.70;22.10;;;0.90;99.90;;;;;;5056681;28;20490;-64
2022/12/09 04:31:39;;;;;;;29.17;22.17;;;1.00;99.90;;;;;;5057074;28;20462;-64
2022/12/09 04:34:06;;;;;;;30.03;21.43;;;1.10;99.90;;;;;;5057366;28;20469;-64
2022/12/09 04:36:34;;;;;;;30.17;23.93;;;1.20;99.90;;;;;;5057458;28;20462;-64
2022/12/09 04:39:02;;;;;;;29.20;23.33;;;1.20;99.90;;;;;;5057047;28;20462;-64
2022/12/09 04:41:29;;;;;;;31.17;22.80;;;1.20;99.90;;;;;;5057180;28;20466;-64
2022/12/09 04:43:56;;;;;;;30.00;23.80;;;1.30;99.90;;;;;;5057337;28;20748;-64
2022/12/09 04:46:23;;;;;;;29.53;21.80;;;1.30;99.90;;;;;;5056678;28;20462;-63
2022/12/09 04:48:51;;;;;;;34.93;23.07;;;1.30;99.90;;;;;;5056890;28;20943;-63
2022/12/09 04:51:18;;;;;;;32.13;22.53;;;1.30;99.90;;;;;;5056891;28;20478;-63
2022/12/09 04:53:45;;;;;;;36.17;22.80;;;1.30;99.90;;;;;;5057148;28;20871;-63
2022/12/09 04:56:17;;;;;;;28.00;22.07;;;1.30;99.90;;;;;;5057606;28;20537;-63
2022/12/09 04:58:44;;;;;;;28.80;21.67;;;1.30;99.90;;;;;;5056908;28;20487;-63
2022/12/09 05:01:14;;;;;;;30.33;21.97;;;1.40;99.90;;;;;;5057525;28;20732;-63
2022/12/09 05:03:42;;;;;;;33.23;22.53;;;1.40;99.90;;;;;;5056965;28;20462;-63
2022/12/09 05:06:13;;;;;;;29.63;21.77;;;1.40;99.90;;;;;;5061376;28;20441;-63
2022/12/09 05:08:41;;;;;;;38.63;24.30;;;1.40;99.90;;;;;;5061010;28;20490;-63
2022/12/09 05:11:09;;;;;;;38.00;25.57;;;1.40;99.90;;;;;;5061166;28;20535;-63
2022/12/09 05:13:37;;;;;;;34.30;24.83;;;1.50;99.90;;;;;;5060580;28;20445;-63
2022/12/09 05:16:07;;;;;;;29.80;22.37;;;1.40;99.90;;;;;;5061023;28;20462;-63
2022/12/09 05:18:34;;;;;;;34.13;22.10;;;1.40;99.90;;;;;;5060551;28;20466;-63
2022/12/09 05:21:05;;;;;;;31.40;24.13;;;1.40;99.90;;;;;;5060400;28;20462;-63
2022/12/09 05:23:32;;;;;;;30.13;23.40;;;1.40;99.90;;;;;;5060864;28;20440;-64
2022/12/09 05:26:02;;;;;;;34.67;22.47;;;1.40;99.90;;;;;;5060694;28;20460;-64
2022/12/09 05:28:30;;;;;;;34.43;23.53;;;1.40;99.90;;;;;;5060416;28;20493;-64
2022/12/09 05:31:00;;;;;;;30.60;23.80;;;1.40;99.90;;;;;;5060035;28;20875;-64
2022/12/09 05:33:29;;;;;;;30.10;21.03;;;1.40;99.90;;;;;;5060790;28;20482;-64
2022/12/09 09:28:29;;;;;;;26.60;19.00;;;2.20;99.90;;;;;;3618707;28;23291;-63
2022/12/09 09:31:00;;;;;;;26.80;20.30;;;2.20;99.90;;;;;;5036315;28;21004;-63
2022/12/09 09:33:28;;;;;;;30.37;21.30;;;2.30;99.90;;;;;;5036196;28;20508;-63
2022/12/09 09:35:56;;;;;;;31.70;20.60;;;2.30;99.90;;;;;;5036309;28;20442;-63
2022/12/09 09:38:23;;;;;;;33.97;22.30;;;2.30;99.90;;;;;;5036375;28;20442;-63
2022/12/09 09:40:51;;;;;;;34.87;22.80;;;2.40;99.90;;;;;;5036997;28;20739;-64
2022/12/09 09:43:21;;;;;;;26.23;18.00;;;2.50;99.90;;;;;;5036931;28;20865;-64
2022/12/09 09:45:50;;;;;;;26.47;18.67;;;2.60;99.90;;;;;;5036236;28;20442;-63
2022/12/09 09:48:21;;;;;;;22.37;18.53;;;2.60;99.90;;;;;;5036552;28;20471;-64
2022/12/09 09:50:53;;;;;;;21.27;17.80;;;2.70;99.90;;;;;;5038027;28;20561;-64
2022/12/09 09:53:29;;;;;;;22.73;17.70;;;2.70;99.90;;;;;;5040239;28;20460;-64
2022/12/09 09:55:59;;;;;;;24.97;18.80;;;2.70;99.90;;;;;;5040152;28;20911;-64
2022/12/09 09:58:36;;;;;;;21.87;17.37;;;2.80;99.90;;;;;;5039021;28;20467;-64
2022/12/09 10:01:07;;;;;;;22.37;18.13;;;2.80;99.90;;;;;;5037983;28;20449;-64
2022/12/09 10:03:49;;;;;;;26.30;18.10;;;2.80;99.90;;;;;;5037410;28;20475;-64
2022/12/09 10:06:28;;;;;;;26.40;18.23;;;2.80;99.90;;;;;;5038317;28;20436;-64
2022/12/09 10:09:03;;;;;;;25.87;18.83;;;2.80;99.90;;;;;;5038463;28;20523;-64
2022/12/09 10:11:36;;;;;;;24.40;18.67;;;2.90;99.90;;;;;;5039656;28;20473;-64
2022/12/09 10:14:15;;;;;;;27.17;16.70;;;2.80;99.90;;;;;;5039778;28;20777;-64
2022/12/09 10:16:47;;;;;;;24.43;17.67;;;2.70;99.90;;;;;;5039454;28;20737;-64
2022/12/09 10:19:21;;;;;;;22.50;16.07;;;2.70;99.90;;;;;;5037454;28;20450;-64
2022/12/09 10:21:51;;;;;;;24.57;17.40;;;2.70;99.90;;;;;;5037371;28;20472;-64
2022/12/09 10:24:25;;;;;;;22.70;16.63;;;2.60;99.90;;;;;;5039333;28;20463;-64
2022/12/09 10:27:01;;;;;;;20.80;16.87;;;2.60;99.90;;;;;;5039356;28;20745;-64
2022/12/09 10:29:42;;;;;;;22.27;15.90;;;2.80;99.90;;;;;;5047828;28;20762;-63
2022/12/09 10:32:16;;;;;;;20.20;16.43;;;2.90;99.90;;;;;;5058863;28;20462;-63
2022/12/09 10:34:43;;;;;;;21.53;16.60;;;2.90;99.90;;;;;;5059675;28;20446;-63
2022/12/09 10:37:24;;;;;;;20.67;15.63;;;3.10;99.90;;;;;;5059261;28;20468;-63
2022/12/09 10:39:55;;;;;;;25.10;17.30;;;3.20;99.90;;;;;;5058834;28;20477;-64
2022/12/09 10:45:22;;;;;;;22.77;16.60;;;3.80;99.90;;;;;;5018024;28;20414;-62
2022/12/09 10:47:52;;;;;;;22.53;15.53;;;3.80;99.90;;;;;;5020040;28;20757;-62
2022/12/09 10:50:35;;;;;;;22.23;17.07;;;4.00;99.90;;;;;;5016452;28;20475;-62
2022/12/09 10:53:07;;;;;;;20.30;16.63;;;4.20;99.90;;;;;;5015587;28;20460;-62
2022/12/09 10:55:38;;;;;;;22.23;17.50;;;4.30;99.90;;;;;;5016523;28;20466;-62
2022/12/09 10:58:17;;;;;;;23.93;17.27;;;4.20;99.90;;;;;;5016841;28;20438;-62
2022/12/09 11:00:57;;;;;;;19.47;17.33;;;4.20;99.90;;;;;;5015484;28;20462;-62
2022/12/09 11:03:29;;;;;;;19.43;16.47;;;4.10;99.90;;;;;;5015593;28;20504;-62
2022/12/09 11:05:58;;;;;;;20.43;15.33;;;4.10;81.00;;;;;;5013553;28;20554;-62
2022/12/09 11:08:26;;;;;;;30.60;17.03;;;4.00;99.90;;;;;;5014550;28;20446;-62
2022/12/09 11:10:54;;;;;;;23.50;17.50;;;4.00;99.90;;;;;;5014591;28;20956;-62
2022/12/09 11:13:38;;;;;;;22.70;18.10;;;4.00;99.90;;;;;;5015488;28;20460;-62
2022/12/09 11:16:06;;;;;;;21.77;17.60;;;4.10;99.90;;;;;;5016610;28;20463;-62
2022/12/09 11:18:43;;;;;;;23.40;18.23;;;4.10;99.90;;;;;;5019954;28;20467;-63
2022/12/09 11:21:33;;;;;;;25.20;16.57;;;4.10;99.90;;;;;;5058708;28;20462;-62
2022/12/09 11:24:02;;;;;;;20.07;17.40;;;3.80;1.00;;;;;;5058327;28;20454;-62
2022/12/09 11:26:37;;;;;;;21.50;17.90;;;3.80;1.00;;;;;;5058414;28;20565;-62
2022/12/09 11:29:14;;;;;;;22.37;16.17;;;3.90;99.90;;;;;;5056064;28;20502;-62
2022/12/09 11:31:44;;;;;;;23.70;18.77;;;4.00;99.90;;;;;;5036323;28;20776;-62
2022/12/09 11:34:21;;;;;;;19.33;16.10;;;4.20;99.90;;;;;;5036172;28;20463;-63
2022/12/09 11:36:51;;;;;;;23.70;17.10;;;4.50;99.90;;;;;;5038925;28;20720;-63
2022/12/09 11:39:25;;;;;;;22.37;17.47;;;4.60;73.00;;;;;;5053676;28;20470;-63
2022/12/09 11:42:13;;;;;;;23.13;16.77;;;4.40;99.90;;;;;;5056169;28;20462;-63
2022/12/09 11:44:44;;;;;;;24.87;18.63;;;4.10;99.90;;;;;;5058630;28;20469;-63
2022/12/09 11:47:14;;;;;;;23.50;18.23;;;4.40;99.90;;;;;;5057856;28;20488;-63
2022/12/09 11:49:51;;;;;;;20.30;17.03;;;5.00;99.90;;;;;;5051160;28;20491;-63
2022/12/09 11:52:29;;;;;;;21.63;17.87;;;5.10;99.90;;;;;;5055809;28;20433;-63
2022/12/09 11:55:13;;;;;;;22.53;18.13;;;5.30;28.90;;;;;;5053111;28;20520;-63
2022/12/09 11:57:47;;;;;;;20.10;16.63;;;5.70;47.80;;;;;;5047865;28;20464;-63
2022/12/09 12:00:18;;;;;;;23.37;15.30;;;6.20;1.00;;;;;;5050607;28;20463;-63
2022/12/09 12:02:51;;;;;;;21.17;16.23;;;6.60;1.00;;;;;;5053296;28;20841;-63
2022/12/09 12:05:23;;;;;;;23.03;17.03;;;6.80;1.00;;;;;;5045397;28;20493;-63
2022/12/09 12:08:00;;;;;;;21.77;17.23;;;7.30;1.00;;;;;;5054618;28;20450;-63
2022/12/09 12:10:34;;;;;;;23.70;17.97;;;7.50;1.00;;;;;;5053314;28;20499;-63
2022/12/09 12:13:10;;;;;;;20.43;16.63;;;7.70;1.00;;;;;;5054006;28;20477;-63
2022/12/09 12:15:43;;;;;;;18.20;16.27;;;7.90;1.00;;;;;;5053181;28;20462;-64
2022/12/09 12:18:17;;;;;;;20.37;14.80;;;8.00;1.00;;;;;;5051760;28;20433;-64
2022/12/09 12:21:02;;;;;;;23.80;14.60;;;8.10;1.00;;;;;;5053197;28;20464;-64
2022/12/09 12:24:02;;;;;;;18.80;14.47;;;7.80;1.00;;;;;;5051921;28;20497;-64
2022/12/09 12:26:35;;;;;;;19.03;14.50;;;7.10;1.00;;;;;;5053861;28;20466;-64
2022/12/09 12:29:17;;;;;;;20.30;17.50;;;7.00;1.00;;;;;;5054320;28;20486;-63
2022/12/09 12:32:06;;;;;;;22.57;16.60;;;5.90;1.00;;;;;;5054342;28;20743;-63
2022/12/09 12:34:43;;;;;;;24.63;18.00;;;5.30;1.00;;;;;;5044392;28;20474;-63
2022/12/09 12:37:25;;;;;;;27.57;19.00;;;4.90;1.00;;;;;;5057150;28;20472;-63
2022/12/09 12:40:00;;;;;;;26.00;16.40;;;4.60;1.00;;;;;;5056195;28;20899;-63
2022/12/09 12:46:15;;;;;;;23.57;18.63;;;4.60;1.00;;;;;;5057806;28;20441;-63
2022/12/09 12:48:37;;;;;;;19.60;16.27;;;4.50;1.00;;;;;;5034592;28;20497;-63
2022/12/09 12:51:15;;;;;;;20.27;16.40;;;4.30;1.00;;;;;;5034655;28;20487;-63
2022/12/09 12:53:52;;;;;;;23.53;17.50;;;4.10;1.00;;;;;;5034157;28;20908;-62
2022/12/09 12:56:24;;;;;;;22.70;16.73;;;4.30;1.00;;;;;;5034864;28;20463;-63
2022/12/09 12:59:02;;;;;;;28.00;17.80;;;4.60;1.00;;;;;;5035732;28;20438;-63
2022/12/09 13:01:33;;;;;;;26.70;18.27;;;4.90;1.00;;;;;;5055410;28;20462;-62
2022/12/09 13:04:21;;;;;;;22.73;17.50;;;4.70;1.00;;;;;;5042972;28;20519;-63
2022/12/09 13:06:52;;;;;;;21.97;15.07;;;4.70;1.00;;;;;;5055163;28;20465;-63
2022/12/09 13:09:29;;;;;;;25.93;18.77;;;4.30;1.00;;;;;;5055228;28;20490;-63
2022/12/09 13:12:04;;;;;;;22.80;17.40;;;3.90;1.00;;;;;;5056445;28;20441;-63
2022/12/09 13:14:37;;;;;;;23.70;18.17;;;3.50;1.00;;;;;;5056993;28;20468;-63
2022/12/09 13:17:08;;;;;;;25.20;18.90;;;3.20;1.00;;;;;;5058082;28;20449;-63
2022/12/09 13:19:41;;;;;;;27.20;18.57;;;2.90;33.70;;;;;;5056309;28;20903;-63
2022/12/09 13:22:16;;;;;;;25.07;19.23;;;2.80;99.90;;;;;;5053933;28;20428;-63
2022/12/09 13:24:52;;;;;;;25.17;19.70;;;2.70;99.90;;;;;;5056456;28;20462;-63
2022/12/09 13:27:26;;;;;;;25.20;18.20;;;2.70;99.90;;;;;;5059230;28;20466;-63
2022/12/09 13:29:59;;;;;;;27.30;20.20;;;2.80;99.90;;;;;;5058845;28;20494;-63
2022/12/09 13:32:50;;;;;;;30.67;19.43;;;2.80;99.90;;;;;;5060059;28;20461;-63
2022/12/09 13:35:23;;;;;;;24.70;18.97;;;2.90;99.90;;;;;;5051019;28;20455;-63
2022/12/09 13:37:58;;;;;;;23.97;17.30;;;2.90;99.90;;;;;;5039439;28;20557;-63
2022/12/09 13:40:35;;;;;;;24.13;17.73;;;2.80;99.90;;;;;;5038472;28;20459;-63
2022/12/09 13:43:24;;;;;;;30.00;23.60;;;2.80;93.10;;;;;;5038994;28;20470;-63
2022/12/09 13:45:55;;;;;;;23.53;18.80;;;2.80;99.90;;;;;;5038545;28;20957;-63
2022/12/09 13:48:47;;;;;;;29.77;19.67;;;2.80;97.60;;;;;;5038527;28;20806;-63
2022/12/09 13:51:16;;;;;;;23.27;17.13;;;2.80;71.90;;;;;;5035340;28;20815;-63
2022/12/09 13:53:53;;;;;;;24.30;17.83;;;2.70;24.00;;;;;;5038881;28;20442;-63
2022/12/09 13:56:26;;;;;;;26.37;14.60;;;2.70;6.60;;;;;;5051999;28;20894;-63
2022/12/09 13:59:40;;;;;;;24.07;18.23;;;2.60;1.00;;;;;;5058722;28;20462;-63
2022/12/09 14:02:24;;;;;;;26.77;19.40;;;2.60;1.00;;;;;;4994733;28;20434;-63
2022/12/09 14:05:00;;;;;;;37.30;28.60;;;2.60;1.00;;;;;;4994256;28;20786;-63
2022/12/09 14:07:33;;;;;;;26.23;20.50;;;2.70;15.70;;;;;;4993193;28;20457;-63
2022/12/09 14:10:01;;;;;;;20.93;17.53;;;2.70;12.70;;;;;;4994453;28;20496;-63
2022/12/09 14:13:05;;;;;;;43.30;30.53;;;2.60;3.20;;;;;;4994651;28;20464;-63
2022/12/09 14:15:39;;;;;;;26.80;19.70;;;2.60;1.00;;;;;;4996018;28;20471;-63
2022/12/09 14:18:29;;;;;;;26.00;19.93;;;2.60;1.00;;;;;;4995291;28;20439;-63
2022/12/09 14:21:28;;;;;;;28.00;18.50;;;2.60;1.00;;;;;;4995192;28;20757;-63
2022/12/09 14:24:29;;;;;;;22.27;16.70;;;2.70;1.00;;;;;;4994775;28;20457;-63
2022/12/09 14:27:17;;;;;;;24.37;17.73;;;2.90;14.90;;;;;;4994917;28;20431;-63
2022/12/09 14:29:53;;;;;;;26.30;17.37;;;2.90;1.00;;;;;;4994384;28;20506;-63
2022/12/09 14:32:26;;;;;;;24.77;15.87;;;2.90;1.00;;;;;;5002621;28;20473;-63
2022/12/09 14:35:18;;;;;;;24.97;16.87;;;2.90;5.70;;;;;;5036707;28;20476;-63
2022/12/09 14:37:59;;;;;;;25.20;17.90;;;2.80;6.20;;;;;;5034775;28;20467;-63
2022/12/09 14:40:44;;;;;;;25.27;17.27;;;2.70;1.00;;;;;;5036367;28;20855;-63
2022/12/09 14:43:31;;;;;;;22.57;17.33;;;2.50;1.00;;;;;;5035670;28;20970;-63
2022/12/09 14:46:01;;;;;;;27.20;17.57;;;2.40;1.00;;;;;;5038590;28;20475;-63
2022/12/09 14:48:32;;;;;;;25.13;19.37;;;2.30;1.00;;;;;;5051909;28;20451;-63
2022/12/09 14:51:08;;;;;;;28.93;20.50;;;2.20;46.40;;;;;;5058106;28;20915;-63
2022/12/09 14:53:37;;;;;;;30.83;20.33;;;2.10;99.90;;;;;;5057435;28;20428;-63
2022/12/09 14:56:05;;;;;;;29.43;20.77;;;2.10;99.90;;;;;;5057872;28;20462;-63
2022/12/09 14:58:33;;;;;;;33.70;22.10;;;2.00;99.90;;;;;;5058356;28;20433;-63
2022/12/09 15:01:03;;;;;;;26.07;20.40;;;2.00;99.90;;;;;;5058171;28;20876;-63
2022/12/09 15:03:31;;;;;;;28.97;21.00;;;1.90;99.90;;;;;;5057318;28;20441;-63
2022/12/09 15:05:59;;;;;;;33.30;22.43;;;1.90;99.90;;;;;;5058517;28;20462;-63
2022/12/09 15:08:31;;;;;;;33.10;21.93;;;1.70;99.90;;;;;;5058610;28;20468;-63
2022/12/09 15:11:00;;;;;;;35.83;24.70;;;1.70;99.90;;;;;;5056063;28;20500;-62
2022/12/09 15:13:28;;;;;;;31.93;22.80;;;1.60;1.00;;;;;;5057029;28;20887;-63
2022/12/09 15:15:55;;;;;;;36.97;25.93;;;1.60;1.00;;;;;;5054505;28;20499;-63
2022/12/09 15:18:26;;;;;;;32.53;23.60;;;1.50;1.00;;;;;;5045828;28;20543;-62
2022/12/09 15:20:55;;;;;;;35.17;25.13;;;1.50;1.00;;;;;;5058869;28;20888;-62
2022/12/09 15:23:26;;;;;;;36.77;26.80;;;1.40;1.00;;;;;;5057918;28;20484;-62
2022/12/09 15:25:54;;;;;;;38.17;24.83;;;1.30;1.00;;;;;;5058324;28;20447;-62
2022/12/09 15:28:24;;;;;;;31.30;23.60;;;1.30;99.90;;;;;;5058077;28;20553;-62
2022/12/09 15:30:56;;;;;;;37.10;24.80;;;1.30;99.90;;;;;;5057590;28;20469;-62
2022/12/09 15:33:25;;;;;;;35.70;24.23;;;1.30;99.90;;;;;;5056259;28;20497;-62
2022/12/09 15:35:56;;;;;;;37.00;26.63;;;1.20;99.90;;;;;;5056657;28;20444;-62
2022/12/09 15:38:25;;;;;;;38.67;26.87;;;1.10;99.90;;;;;;5056337;28;20436;-63
2022/12/09 15:43:41;;;;;;;41.77;28.87;;;1.00;99.90;;;;;;5055865;28;20544;-62
2022/12/09 15:46:09;;;;;;;40.87;26.87;;;1.00;1.00;;;;;;5056202;28;20441;-62
2022/12/09 15:48:43;;;;;;;34.43;24.90;;;1.10;1.00;;;;;;5057012;28;20440;-63
2022/12/09 15:51:15;;;;;;;37.40;25.70;;;1.10;99.90;;;;;;5056890;28;20950;-63
2022/12/09 15:53:46;;;;;;;39.63;26.37;;;1.10;99.90;;;;;;5056747;28;20488;-63
2022/12/09 15:56:18;;;;;;;39.83;27.37;;;1.10;1.00;;;;;;5055302;28;20470;-63
2022/12/09 15:58:48;;;;;;;44.77;28.30;;;1.20;1.00;;;;;;5057053;28;20733;-63
2022/12/09 16:01:21;;;;;;;45.50;29.23;;;1.20;99.90;;;;;;5057404;28;20451;-63
2022/12/09 16:03:51;;;;;;;43.67;27.80;;;1.20;99.90;;;;;;5057503;28;20439;-63
2022/12/09 16:06:26;;;;;;;41.57;26.87;;;1.20;1.00;;;;;;5055899;28;20746;-62
2022/12/09 16:08:53;;;;;;;42.50;28.60;;;1.20;99.90;;;;;;5056573;28;20481;-63
2022/12/09 16:11:37;;;;;;;42.70;31.77;;;1.10;1.00;;;;;;5056121;28;20592;-63
2022/12/09 16:14:04;;;;;;;42.60;30.20;;;1.20;1.00;;;;;;5055466;28;20439;-63
2022/12/09 16:16:42;;;;;;;43.40;30.00;;;1.10;99.90;;;;;;5056152;28;20937;-63
2022/12/09 16:19:32;;;;;;;40.00;27.10;;;1.10;1.00;;;;;;5056168;28;20899;-62
2022/12/09 16:22:01;;;;;;;38.20;29.27;;;1.00;1.00;;;;;;5055349;28;20465;-62
2022/12/09 16:24:30;;;;;;;39.87;27.17;;;1.00;99.90;;;;;;5056088;28;20462;-63
2022/12/09 16:26:58;;;;;;;38.00;26.00;;;1.00;99.90;;;;;;5056594;28;20485;-62
2022/12/09 16:29:28;;;;;;;39.20;26.83;;;0.90;71.30;;;;;;5054159;28;20465;-63
2022/12/09 16:32:22;;;;;;;38.90;25.00;;;0.80;99.90;;;;;;5055383;28;20563;-62
2022/12/09 16:34:53;;;;;;;41.43;27.87;;;0.70;1.00;;;;;;5055857;28;20465;-63
2022/12/09 16:37:28;;;;;;;32.93;25.90;;;0.60;99.90;;;;;;5055766;28;20483;-63
2022/12/09 16:39:55;;;;;;;40.97;29.53;;;0.60;99.90;;;;;;5055625;28;20472;-63
2022/12/09 16:42:27;;;;;;;36.73;27.10;;;0.60;99.90;;;;;;5056698;28;20762;-63
2022/12/09 16:45:22;;;;;;;36.70;27.20;;;0.50;99.90;;;;;;5057767;28;20756;-63
2022/12/09 16:47:53;;;;;;;40.83;27.90;;;0.50;99.90;;;;;;5057342;28;20750;-63
2022/12/09 16:50:23;;;;;;;41.57;28.33;;;0.40;1.00;;;;;;5057326;28;20711;-63
2022/12/09 16:52:50;;;;;;;41.80;28.77;;;0.40;1.00;;;;;;5057468;28;20465;-63
2022/12/09 16:55:21;;;;;;;43.43;30.87;;;0.40;99.90;;;;;;5057274;28;20468;-63
2022/12/09 16:57:48;;;;;;;45.60;33.87;;;0.40;1.00;;;;;;5057604;28;20465;-63
2022/12/09 17:00:17;;;;;;;43.27;31.40;;;0.30;24.60;;;;;;5057558;28;20441;-63
2022/12/09 17:02:48;;;;;;;45.73;31.40;;;0.30;99.90;;;;;;5061620;28;20463;-63
2022/12/09 17:05:15;;;;;;;51.63;33.80;;;0.30;99.90;;;;;;5061222;28;20749;-63
2022/12/09 17:07:44;;;;;;;49.00;34.03;;;0.30;99.90;;;;;;5060174;28;20472;-63